Thorofare, New Jersey
Current Conditions -  °F | °C
As of 8:54 AM on Friday 28 Nov 2014 (Local Time) from KPHL Reporting Station
Few Clouds Few Clouds  
Wind Chill: 25°   Ceiling: Unl
Heat Index: 36°   Visibility: 10mi
Dew Point: 22°   Wind: 20mph
Humidity: 57%   Direction: 320°NW
Pressure: 30.25"   Gusts: NA
Location:  39.84°N, 75.2°W
Report Text: KPHL 281354Z 32017KT 10SM FEW070 02/M06 A3025 RMK AO2 SLP241 T00221056 $
Loading
Personal Weather Stations






























Interactive Weather Map New forecast layout! Learn more

10-Day Weather Forecast

Advertisements
Track Severe Weather on mobile